createdAt,value
2023-04-26T00:02:01.187Z,3.92
2023-04-26T00:04:29.521Z,3.45
2023-04-26T00:06:57.048Z,3.03
2023-04-26T00:09:23.956Z,2.85
2023-04-26T00:11:51.206Z,3.80
2023-04-26T00:14:18.290Z,3.72
2023-04-26T00:16:45.440Z,3.95
2023-04-26T00:19:12.908Z,4.97
2023-04-26T00:21:40.312Z,4.65
2023-04-26T00:24:07.957Z,4.53
2023-04-26T00:26:35.175Z,4.03
2023-04-26T00:29:04.205Z,4.25
2023-04-26T00:31:31.324Z,4.88
2023-04-26T00:33:58.284Z,4.07
2023-04-26T00:36:25.257Z,4.88
2023-04-26T00:38:53.227Z,4.75
2023-04-26T00:41:20.522Z,3.78
2023-04-26T00:43:47.834Z,3.88
2023-04-26T00:46:14.917Z,4.72
2023-04-26T00:48:42.616Z,4.72
2023-04-26T00:51:09.881Z,4.90
2023-04-26T00:53:37.136Z,5.57
2023-04-26T00:56:08.077Z,4.18
2023-04-26T00:58:35.158Z,4.57
2023-04-26T01:01:02.803Z,5.32
2023-04-26T01:03:30.493Z,5.50
2023-04-26T01:05:58.339Z,4.90
2023-04-26T01:08:25.690Z,4.88
2023-04-26T01:10:53.409Z,4.72
2023-04-26T01:13:21.074Z,4.40
2023-04-26T01:15:48.691Z,4.32
2023-04-26T01:18:15.799Z,3.70
2023-04-26T01:20:43.406Z,5.07
2023-04-26T01:23:11.893Z,5.50
2023-04-26T01:25:39.444Z,4.95
2023-04-26T01:28:06.517Z,4.65
2023-04-26T01:30:33.437Z,5.95
2023-04-26T01:33:03.393Z,4.95
2023-04-26T01:35:30.407Z,5.78
2023-04-26T01:37:57.369Z,7.97
2023-04-26T01:40:24.349Z,7.55
2023-04-26T01:42:51.374Z,8.68
2023-04-26T01:45:18.471Z,9.05
2023-04-26T01:48:04.324Z,8.30
2023-04-26T01:50:33.102Z,8.75
2023-04-26T01:53:00.023Z,8.55
2023-04-26T01:55:27.091Z,10.27
2023-04-26T01:57:54.057Z,10.75
2023-04-26T02:00:21.121Z,11.45
2023-04-26T02:02:49.729Z,8.48
2023-04-26T02:05:16.788Z,8.73
2023-04-26T02:07:43.867Z,7.25
2023-04-26T02:10:11.099Z,7.93
2023-04-26T02:12:38.471Z,7.07
2023-04-26T02:15:06.330Z,6.57
2023-04-26T02:17:37.828Z,7.70
2023-04-26T02:20:05.334Z,7.30
2023-04-26T02:22:32.368Z,8.43
2023-04-26T02:24:59.501Z,8.02
2023-04-26T02:27:28.019Z,6.55
2023-04-26T02:29:55.534Z,7.35
2023-04-26T02:32:22.570Z,6.68
2023-04-26T02:34:50.741Z,7.03
2023-04-26T02:37:17.832Z,6.55
2023-04-26T02:39:45.156Z,7.50
2023-04-26T02:42:13.309Z,6.20
2023-04-26T02:44:41.334Z,6.65
2023-04-26T02:47:08.546Z,7.30
2023-04-26T02:49:35.857Z,6.88
2023-04-26T02:52:02.906Z,6.30
2023-04-26T02:54:31.364Z,6.65
2023-04-26T02:56:59.004Z,6.93
2023-04-26T02:59:27.466Z,6.97
2023-04-26T03:01:55.685Z,7.38
2023-04-26T03:04:23.862Z,6.82
2023-04-26T03:06:50.826Z,7.80
2023-04-26T03:09:17.983Z,6.40
2023-04-26T03:11:45.873Z,7.97
2023-04-26T03:14:13.424Z,5.85
2023-04-26T03:16:44.753Z,6.65
2023-04-26T03:19:11.930Z,5.50
2023-04-26T03:21:40.626Z,6.30
2023-04-26T03:24:07.872Z,5.18
2023-04-26T03:26:34.837Z,5.75
2023-04-26T03:29:03.186Z,5.15
2023-04-26T03:31:30.341Z,4.45
2023-04-26T03:33:57.304Z,5.15
2023-04-26T03:36:24.421Z,4.20
2023-04-26T03:38:52.145Z,4.28
2023-04-26T03:41:20.460Z,4.65
2023-04-26T03:43:47.509Z,4.22
2023-04-26T03:46:14.613Z,4.13
2023-04-26T03:48:41.697Z,4.63
2023-04-26T03:51:08.685Z,5.05
2023-04-26T03:53:35.754Z,4.13
2023-04-26T03:56:02.746Z,5.13
2023-04-26T03:58:31.348Z,4.35
2023-04-26T04:01:01.085Z,5.05
2023-04-26T04:03:30.659Z,5.53
2023-04-26T04:05:57.923Z,4.20
2023-04-26T04:08:24.920Z,5.32
2023-04-26T04:10:52.033Z,4.88
2023-04-26T04:13:19.652Z,4.35
2023-04-26T04:15:47.428Z,3.65
2023-04-26T04:18:14.468Z,4.63
2023-04-26T04:20:42.111Z,4.05
2023-04-26T04:23:10.161Z,4.25
2023-04-26T04:25:39.663Z,4.32
2023-04-26T04:28:09.529Z,4.05
2023-04-26T04:30:37.046Z,3.78
2023-04-26T04:33:05.471Z,4.75
2023-04-26T04:35:34.299Z,4.25
2023-04-26T04:38:04.474Z,4.85
2023-04-26T04:40:33.405Z,4.25
2023-04-26T04:43:01.148Z,3.97
2023-04-26T04:45:29.623Z,4.25
2023-04-26T04:47:58.368Z,4.95
2023-04-26T04:50:26.777Z,3.63
2023-04-26T04:52:53.833Z,4.07
2023-04-26T04:55:20.986Z,4.43
2023-04-26T04:57:47.936Z,4.07
2023-04-26T05:00:15.960Z,3.92
2023-04-26T05:03:06.109Z,3.58
2023-04-26T05:05:33.144Z,3.33
2023-04-26T05:08:00.146Z,3.78
2023-04-26T05:10:27.203Z,3.53
2023-04-26T05:12:54.301Z,3.70
2023-04-26T05:15:21.523Z,3.40
2023-04-26T05:17:48.572Z,2.90
2023-04-26T05:20:18.561Z,4.18
2023-04-26T05:22:46.922Z,4.18
2023-04-26T05:25:14.177Z,3.40
2023-04-26T05:27:42.008Z,3.40
2023-04-26T05:30:27.420Z,2.72
2023-04-26T05:33:04.634Z,2.80
2023-04-26T05:35:54.719Z,2.40
2023-04-26T05:38:25.040Z,2.63
2023-04-26T05:40:52.515Z,2.42
2023-04-26T05:43:19.717Z,2.72
2023-04-26T05:45:53.514Z,2.42
2023-04-26T05:50:49.975Z,1.83
2023-04-26T05:53:17.524Z,1.90
2023-04-26T05:55:46.993Z,2.53
2023-04-26T05:58:14.798Z,1.92
2023-04-26T06:00:42.691Z,2.30
2023-04-26T06:03:10.079Z,2.60
2023-04-26T06:05:41.474Z,2.65
2023-04-26T06:08:09.503Z,2.70
2023-04-26T06:10:37.792Z,2.30
2023-04-26T06:13:07.045Z,2.00
2023-04-26T06:15:36.713Z,2.38
2023-04-26T06:18:05.478Z,2.63
2023-04-26T06:20:33.098Z,1.90
2023-04-26T06:23:00.042Z,2.00
2023-04-26T06:25:27.160Z,2.67
2023-04-26T06:27:54.179Z,2.33
2023-04-26T06:30:21.285Z,1.73
2023-04-26T06:32:48.643Z,2.72
2023-04-26T06:35:17.297Z,2.50
2023-04-26T06:37:44.319Z,2.90
2023-04-26T06:40:16.005Z,2.28
2023-04-26T06:42:43.726Z,2.55
2023-04-26T06:45:25.525Z,2.00
2023-04-26T06:47:53.395Z,2.22
2023-04-26T06:50:27.651Z,2.00
2023-04-26T06:52:54.631Z,1.77
2023-04-26T06:55:24.859Z,2.35
2023-04-26T06:57:55.565Z,2.13
2023-04-26T07:00:22.889Z,2.10
2023-04-26T07:02:49.853Z,1.70
2023-04-26T07:05:17.575Z,2.15
2023-04-26T07:07:52.223Z,1.75
2023-04-26T07:10:30.157Z,2.10
2023-04-26T07:12:57.664Z,2.15
2023-04-26T07:15:24.891Z,2.17
2023-04-26T07:17:51.959Z,2.20
2023-04-26T07:20:21.212Z,1.85
2023-04-26T07:22:49.595Z,2.47
2023-04-26T07:25:20.709Z,2.55
2023-04-26T07:27:47.750Z,2.10
2023-04-26T07:30:14.842Z,1.67
2023-04-26T07:32:42.045Z,2.25
2023-04-26T07:35:16.128Z,2.30
2023-04-26T07:37:44.316Z,2.78
2023-04-26T07:40:13.540Z,2.50
2023-04-26T07:42:40.631Z,2.63
2023-04-26T07:45:08.751Z,3.55
2023-04-26T07:47:35.983Z,2.88
2023-04-26T07:50:02.936Z,3.20
2023-04-26T07:52:30.482Z,2.75
2023-04-26T07:54:59.029Z,2.90
2023-04-26T07:57:26.283Z,2.47
2023-04-26T07:59:57.011Z,3.10
2023-04-26T08:02:41.000Z,3.13
2023-04-26T08:05:11.632Z,3.47
2023-04-26T08:07:38.953Z,2.65
2023-04-26T08:10:06.768Z,2.95
2023-04-26T08:12:34.645Z,2.75
2023-04-26T08:15:05.817Z,3.15
2023-04-26T08:17:33.620Z,3.42
2023-04-26T08:20:00.803Z,3.08
2023-04-26T08:22:28.089Z,3.22
2023-04-26T08:24:56.219Z,3.15
2023-04-26T08:27:25.928Z,2.75
2023-04-26T08:29:52.860Z,3.35
2023-04-26T08:32:21.730Z,4.30
2023-04-26T08:34:49.245Z,2.90
2023-04-26T08:37:16.329Z,4.18
2023-04-26T08:39:43.260Z,3.20
2023-04-26T08:42:15.321Z,2.40
2023-04-26T08:44:46.947Z,3.58
2023-04-26T08:47:18.118Z,3.60
2023-04-26T08:49:59.465Z,3.30
2023-04-26T08:52:30.902Z,2.70
2023-04-26T08:54:59.632Z,4.32
2023-04-26T08:57:27.533Z,3.55
2023-04-26T08:59:57.931Z,4.07
2023-04-26T09:02:25.338Z,3.78
2023-04-26T09:04:52.829Z,3.38
2023-04-26T09:07:36.128Z,3.72
2023-04-26T09:10:09.364Z,3.63
2023-04-26T09:12:36.651Z,3.83
2023-04-26T09:15:08.018Z,2.47
2023-04-26T09:17:41.852Z,3.28
2023-04-26T09:20:31.952Z,3.05
2023-04-26T09:23:10.161Z,4.50
2023-04-26T09:25:37.896Z,4.35
2023-04-26T09:28:21.611Z,4.05
2023-04-26T09:30:49.028Z,4.43
2023-04-26T09:33:16.455Z,4.25
2023-04-26T09:35:44.258Z,4.53
2023-04-26T09:38:16.313Z,4.50
2023-04-26T09:40:47.864Z,5.05
2023-04-26T09:43:19.946Z,5.45
2023-04-26T09:45:53.008Z,4.93
2023-04-26T09:48:26.256Z,5.65
2023-04-26T09:50:58.454Z,4.72
2023-04-26T09:53:34.765Z,5.57
2023-04-26T09:56:15.885Z,4.72
2023-04-26T09:59:00.960Z,4.78
2023-04-26T10:01:30.223Z,4.78
2023-04-26T10:03:58.626Z,4.45
2023-04-26T10:06:27.391Z,5.15
2023-04-26T10:08:55.872Z,4.45
2023-04-26T10:11:24.839Z,5.57
2023-04-26T10:13:52.219Z,4.53
2023-04-26T10:16:21.098Z,4.25
2023-04-26T10:18:49.458Z,4.43
2023-04-26T10:21:37.234Z,5.57
2023-04-26T10:24:04.928Z,4.50
2023-04-26T10:26:52.926Z,5.75
2023-04-26T10:29:22.360Z,4.25
2023-04-26T10:32:08.883Z,4.45
2023-04-26T10:34:37.559Z,3.88
2023-04-26T10:37:18.391Z,4.63
2023-04-26T10:39:47.173Z,4.70
2023-04-26T10:42:27.828Z,4.53
2023-04-26T10:45:28.350Z,5.15
2023-04-26T10:48:20.169Z,4.22
2023-04-26T10:51:12.857Z,4.75
2023-04-26T10:53:45.718Z,4.22
2023-04-26T10:56:33.677Z,4.15
2023-04-26T10:59:33.093Z,4.28
2023-04-26T11:02:01.702Z,4.30
2023-04-26T11:04:52.313Z,4.57
2023-04-26T11:07:41.204Z,3.92
2023-04-26T11:10:12.622Z,3.83
2023-04-26T11:12:42.492Z,2.78
2023-04-26T11:15:12.487Z,2.40
2023-04-26T11:17:40.835Z,2.22
2023-04-26T11:20:16.468Z,2.35
2023-04-26T11:22:43.498Z,2.30
2023-04-26T11:25:13.930Z,2.92
2023-04-26T11:27:43.707Z,2.50
2023-04-26T11:30:11.898Z,2.58
2023-04-26T11:32:38.935Z,2.85
2023-04-26T11:35:06.265Z,2.00
2023-04-26T11:37:34.927Z,1.90
2023-04-26T11:40:01.966Z,2.20
2023-04-26T11:42:31.267Z,2.35
2023-04-26T11:44:59.766Z,2.17
2023-04-26T11:47:30.893Z,2.28
2023-04-26T11:49:58.475Z,2.25
2023-04-26T11:52:26.668Z,2.80
2023-04-26T11:55:06.283Z,2.72
2023-04-26T11:57:34.642Z,2.83
2023-04-26T12:00:15.102Z,2.65
2023-04-26T12:02:46.805Z,2.22
2023-04-26T12:05:28.493Z,2.90
2023-04-26T12:07:57.411Z,1.80
2023-04-26T12:10:42.880Z,2.33
2023-04-26T12:13:13.991Z,2.65
2023-04-26T12:15:41.078Z,2.58
2023-04-26T12:18:12.533Z,2.53
2023-04-26T12:20:42.816Z,2.78
2023-04-26T12:23:14.644Z,1.92
2023-04-26T12:25:52.631Z,2.42
2023-04-26T12:28:19.803Z,2.25
2023-04-26T12:30:51.203Z,1.98
2023-04-26T12:33:23.123Z,1.90
2023-04-26T12:35:53.387Z,1.98
2023-04-26T12:38:20.735Z,1.95
2023-04-26T12:40:47.931Z,2.17
2023-04-26T12:43:16.890Z,3.10
2023-04-26T12:45:44.007Z,3.05
2023-04-26T12:48:13.728Z,3.05
2023-04-26T12:50:41.549Z,3.08
2023-04-26T12:53:08.637Z,3.42
2023-04-26T12:55:35.794Z,2.70
2023-04-26T12:58:03.314Z,2.22
2023-04-26T13:00:30.894Z,2.95
2023-04-26T13:02:58.193Z,2.67
2023-04-26T13:05:25.630Z,2.13
2023-04-26T13:07:52.766Z,2.20
2023-04-26T13:10:20.217Z,2.72
2023-04-26T13:12:47.380Z,2.58
2023-04-26T13:15:16.204Z,1.80
2023-04-26T13:17:45.778Z,1.98
2023-04-26T13:20:13.308Z,2.03
2023-04-26T13:22:42.536Z,1.95
2023-04-26T13:25:13.415Z,2.55
2023-04-26T13:27:40.486Z,2.40
2023-04-26T13:30:08.680Z,2.78
2023-04-26T13:32:36.440Z,2.83
2023-04-26T13:35:04.381Z,2.90
2023-04-26T13:37:31.908Z,3.05
2023-04-26T13:39:59.077Z,2.55
2023-04-26T13:42:26.470Z,2.72
2023-04-26T13:44:53.350Z,3.08
2023-04-26T13:47:20.925Z,3.13
2023-04-26T13:49:48.016Z,3.40
2023-04-26T13:52:15.016Z,2.72
2023-04-26T13:54:41.948Z,2.72
2023-04-26T13:57:09.042Z,2.40
2023-04-26T13:59:36.153Z,2.40
2023-04-26T14:02:03.896Z,3.10
2023-04-26T14:04:31.400Z,3.33
2023-04-26T14:06:58.864Z,3.30
2023-04-26T14:09:26.066Z,3.05
2023-04-26T14:12:00.863Z,2.72
2023-04-26T14:14:34.758Z,3.20
2023-04-26T14:17:01.880Z,3.03
2023-04-26T14:19:28.805Z,2.85
2023-04-26T14:21:55.764Z,2.47
2023-04-26T14:24:22.900Z,2.85
2023-04-26T14:26:49.919Z,2.33
2023-04-26T14:29:16.866Z,2.08
2023-04-26T14:31:44.217Z,2.63
2023-04-26T14:34:11.232Z,2.63
2023-04-26T14:36:38.196Z,2.25
2023-04-26T14:39:05.750Z,2.95
2023-04-26T14:41:32.922Z,2.47
2023-04-26T14:43:59.923Z,2.47
2023-04-26T14:46:27.037Z,2.17
2023-04-26T14:48:54.174Z,2.58
2023-04-26T14:51:21.115Z,3.47
2023-04-26T14:53:48.037Z,2.13
2023-04-26T14:56:15.269Z,3.30
2023-04-26T14:58:42.244Z,2.83
2023-04-26T15:01:09.479Z,3.15
2023-04-26T15:03:36.654Z,2.85
2023-04-26T15:06:03.993Z,2.40
2023-04-26T15:08:30.983Z,2.42
2023-04-26T15:10:58.020Z,2.47
2023-04-26T15:13:24.960Z,2.42
2023-04-26T15:15:52.133Z,2.25
2023-04-26T15:18:19.196Z,2.10
2023-04-26T15:20:46.299Z,2.47
2023-04-26T15:23:13.501Z,1.98
2023-04-26T15:25:43.489Z,2.30
2023-04-26T15:28:10.418Z,2.92
2023-04-26T15:30:37.441Z,3.10
2023-04-26T15:33:04.523Z,2.97
2023-04-26T15:35:31.744Z,2.78
2023-04-26T15:37:58.705Z,2.70
2023-04-26T15:40:25.919Z,2.85
2023-04-26T15:42:52.931Z,2.22
2023-04-26T15:45:20.364Z,2.95
2023-04-26T15:47:47.526Z,3.33
2023-04-26T15:50:14.812Z,2.72
2023-04-26T15:52:44.724Z,3.42
2023-04-26T15:55:12.027Z,3.03
2023-04-26T15:57:42.007Z,2.75
2023-04-26T16:00:09.923Z,3.33
2023-04-26T16:02:37.576Z,3.00
2023-04-26T16:05:05.358Z,3.35
2023-04-26T16:07:32.918Z,3.05
2023-04-26T16:09:59.931Z,3.13
2023-04-26T16:12:26.951Z,4.53
2023-04-26T16:14:57.893Z,3.63
2023-04-26T16:17:25.017Z,2.80
2023-04-26T16:19:54.706Z,3.13
2023-04-26T16:22:23.816Z,2.47
2023-04-26T16:24:50.836Z,3.50
2023-04-26T16:27:22.411Z,2.67
2023-04-26T16:29:52.027Z,2.67
2023-04-26T16:32:19.196Z,2.28
2023-04-26T16:34:46.317Z,3.55
2023-04-26T16:37:14.796Z,2.40
2023-04-26T16:39:41.977Z,2.38
2023-04-26T16:42:08.977Z,3.38
2023-04-26T16:44:36.181Z,3.13
2023-04-26T16:47:04.096Z,2.97
2023-04-26T16:49:31.126Z,3.05
2023-04-26T16:51:59.086Z,2.60
2023-04-26T16:54:26.671Z,2.78
2023-04-26T16:56:57.018Z,2.95
2023-04-26T16:59:24.060Z,3.03
2023-04-26T17:01:52.185Z,2.67
2023-04-26T17:04:19.498Z,3.22
2023-04-26T17:06:46.719Z,2.67
2023-04-26T17:09:16.717Z,2.65
2023-04-26T17:11:44.965Z,3.13
2023-04-26T17:14:14.207Z,3.10
2023-04-26T17:16:41.238Z,3.22
2023-04-26T17:19:08.390Z,3.58
2023-04-26T17:21:35.324Z,2.72
2023-04-26T17:24:02.342Z,3.00
2023-04-26T17:26:32.712Z,2.75
2023-04-26T17:28:59.800Z,3.30
2023-04-26T17:31:26.803Z,2.80
2023-04-26T17:33:57.241Z,2.85
2023-04-26T17:36:24.390Z,3.03
2023-04-26T17:38:51.758Z,2.75
2023-04-26T17:41:18.880Z,3.00
2023-04-26T17:43:46.201Z,2.67
2023-04-26T17:46:13.560Z,2.72
2023-04-26T17:48:43.009Z,3.15
2023-04-26T17:51:13.042Z,2.83
2023-04-26T17:53:45.571Z,3.88
2023-04-26T17:56:12.695Z,3.10
2023-04-26T17:58:40.884Z,4.10
2023-04-26T18:01:07.860Z,4.10
2023-04-26T18:03:35.997Z,3.95
2023-04-26T18:06:03.690Z,3.58
2023-04-26T18:08:30.885Z,3.67
2023-04-26T18:10:58.436Z,2.85
2023-04-26T18:13:25.560Z,3.25
2023-04-26T18:15:54.995Z,3.03
2023-04-26T18:18:27.266Z,3.47
2023-04-26T18:20:54.920Z,3.50
2023-04-26T18:23:22.135Z,3.53
2023-04-26T18:25:50.613Z,3.35
2023-04-26T18:28:17.688Z,3.25
2023-04-26T18:30:44.859Z,3.53
2023-04-26T18:33:12.081Z,3.70
2023-04-26T18:35:39.450Z,3.22
2023-04-26T18:38:06.522Z,3.03
2023-04-26T18:40:33.724Z,3.85
2023-04-26T18:43:01.594Z,3.53
2023-04-26T18:45:28.891Z,3.90
2023-04-26T18:47:56.460Z,3.67
2023-04-26T18:50:23.655Z,3.13
2023-04-26T18:52:50.677Z,3.22
2023-04-26T18:55:20.778Z,4.00
2023-04-26T18:57:47.943Z,4.30
2023-04-26T19:00:16.261Z,5.05
2023-04-26T19:02:43.427Z,4.07
2023-04-26T19:05:11.435Z,3.53
2023-04-26T19:07:39.358Z,3.78
2023-04-26T19:10:07.609Z,3.80
2023-04-26T19:12:34.709Z,4.68
2023-04-26T19:15:02.054Z,4.70
2023-04-26T19:17:33.466Z,4.70
2023-04-26T19:20:00.544Z,4.38
2023-04-26T19:22:27.750Z,4.80
2023-04-26T19:24:54.893Z,4.10
2023-04-26T19:27:21.797Z,5.35
2023-04-26T19:29:48.736Z,4.63
2023-04-26T19:32:15.823Z,4.15
2023-04-26T19:34:43.532Z,4.53
2023-04-26T19:37:10.523Z,4.28
2023-04-26T19:39:37.831Z,4.85
2023-04-26T19:42:04.905Z,4.95
2023-04-26T19:44:32.100Z,5.38
2023-04-26T19:46:59.207Z,5.45
2023-04-26T19:49:28.932Z,5.32
2023-04-26T19:51:56.203Z,3.80
2023-04-26T19:54:23.302Z,4.72
2023-04-26T19:56:50.450Z,5.00
2023-04-26T19:59:17.394Z,4.07
2023-04-26T20:01:44.360Z,6.00
2023-04-26T20:04:11.546Z,4.18
2023-04-26T20:06:38.581Z,5.07
2023-04-26T20:09:07.149Z,4.60
2023-04-26T20:11:34.410Z,3.95
2023-04-26T20:14:01.459Z,5.47
2023-04-26T20:16:28.786Z,3.72
2023-04-26T20:18:55.806Z,4.22
2023-04-26T20:21:23.014Z,4.10
2023-04-26T20:23:49.939Z,5.78
2023-04-26T20:26:16.972Z,6.03
2023-04-26T20:28:43.968Z,3.65
2023-04-26T20:31:11.040Z,4.28
2023-04-26T20:33:38.137Z,3.13
2023-04-26T20:36:05.487Z,2.92
2023-04-26T20:38:32.932Z,3.58
2023-04-26T20:41:00.494Z,3.65
2023-04-26T20:43:27.717Z,4.15
2023-04-26T20:45:54.901Z,4.07
2023-04-26T20:48:22.327Z,4.05
2023-04-26T20:50:49.425Z,3.65
2023-04-26T20:53:16.777Z,4.13
2023-04-26T20:55:43.814Z,4.28
2023-04-26T20:58:10.811Z,3.72
2023-04-26T21:00:37.830Z,4.78
2023-04-26T21:03:05.014Z,5.45
2023-04-26T21:05:32.207Z,3.03
2023-04-26T21:07:59.209Z,3.30
2023-04-26T21:10:26.326Z,3.75
2023-04-26T21:12:53.663Z,3.15
2023-04-26T21:15:21.248Z,3.50
2023-04-26T21:17:48.453Z,3.65
2023-04-26T21:20:15.571Z,3.03
2023-04-26T21:22:42.475Z,3.53
2023-04-26T21:25:10.679Z,3.20
2023-04-26T21:27:37.901Z,3.22
2023-04-26T21:30:07.945Z,4.65
2023-04-26T21:32:40.467Z,3.20
2023-04-26T21:35:08.866Z,4.40
2023-04-26T21:37:36.958Z,3.05
2023-04-26T21:40:05.479Z,4.32
2023-04-26T21:42:33.296Z,4.75
2023-04-26T21:45:01.274Z,4.07
2023-04-26T21:47:30.428Z,4.40
2023-04-26T21:49:58.213Z,3.25
2023-04-26T21:52:25.507Z,5.00
2023-04-26T21:54:52.944Z,4.63
2023-04-26T21:57:24.214Z,4.07
2023-04-26T21:59:51.504Z,3.60
2023-04-26T22:02:19.096Z,3.58
2023-04-26T22:04:46.330Z,3.60
2023-04-26T22:07:13.359Z,4.32
2023-04-26T22:09:40.560Z,4.25
2023-04-26T22:12:07.545Z,3.53
2023-04-26T22:14:35.208Z,4.40
2023-04-26T22:17:02.541Z,3.65
2023-04-26T22:19:29.534Z,4.75
2023-04-26T22:21:56.594Z,3.88
2023-04-26T22:24:23.623Z,4.10
2023-04-26T22:26:50.767Z,4.68
2023-04-26T22:29:17.941Z,4.80
2023-04-26T22:31:47.995Z,4.60
2023-04-26T22:34:15.062Z,5.05
2023-04-26T22:36:42.116Z,4.68
2023-04-26T22:39:09.349Z,5.32
2023-04-26T22:41:36.800Z,5.55
2023-04-26T22:44:04.221Z,6.07
2023-04-26T22:46:31.578Z,5.30
2023-04-26T22:49:01.705Z,4.97
2023-04-26T22:51:28.848Z,5.15
2023-04-26T22:53:56.025Z,5.13
2023-04-26T22:56:22.956Z,5.07
2023-04-26T22:58:50.099Z,5.75
2023-04-26T23:01:17.250Z,5.82
2023-04-26T23:03:44.469Z,6.43
2023-04-26T23:06:11.587Z,5.43
2023-04-26T23:08:38.501Z,6.03
2023-04-26T23:11:09.167Z,4.35
2023-04-26T23:13:36.441Z,4.93
2023-04-26T23:16:04.665Z,4.72
2023-04-26T23:18:31.931Z,5.00
2023-04-26T23:20:58.898Z,4.72
2023-04-26T23:23:26.802Z,5.00
2023-04-26T23:25:54.208Z,5.07
2023-04-26T23:28:21.202Z,5.95
2023-04-26T23:30:48.902Z,5.03
2023-04-26T23:33:16.767Z,5.10
2023-04-26T23:35:43.842Z,4.55
2023-04-26T23:38:10.851Z,5.38
2023-04-26T23:40:37.885Z,6.88
2023-04-26T23:43:06.317Z,6.60
2023-04-26T23:45:33.504Z,5.93
2023-04-26T23:48:00.964Z,6.57
2023-04-26T23:50:28.208Z,6.65
2023-04-26T23:52:55.637Z,7.38
2023-04-26T23:55:24.000Z,5.40
2023-04-26T23:57:51.123Z,6.80
